Time;durP1;ratioP1;P1;durP2;ratioP2;P2;SDS_P1;SDS_P2;PMS_P1;PMS_P2;Temp;Humidity;BMP_temperature;BMP_pressure;BME280_temperature;BME280_humidity;BME280_pressure;Samples;Min_cycle;Max_cycle;Signal;HPM_P1;HPM_P2
2023/01/30 00:03:57;;;;;;;0.20;0.10;;;5.10;99.90;;;;;;21188425;27;20436;-67
2023/01/30 00:14:02;;;;;;;0.20;0.10;;;5.20;99.90;;;;;;21152265;28;20758;-65
2023/01/30 00:24:07;;;;;;;0.20;0.10;;;5.20;99.90;;;;;;21151091;28;20409;-66
2023/01/30 00:34:12;;;;;;;0.20;0.10;;;5.10;99.90;;;;;;21131861;28;20418;-66
2023/01/30 00:54:38;;;;;;;0.20;0.10;;;4.90;99.90;;;;;;21122194;28;20403;-66
2023/01/30 01:04:43;;;;;;;0.20;0.10;;;4.90;99.90;;;;;;21148254;28;20402;-66
2023/01/30 01:14:48;;;;;;;0.20;0.10;;;4.90;99.90;;;;;;21154379;27;20527;-67
2023/01/30 01:24:52;;;;;;;0.20;0.10;;;4.60;99.90;;;;;;21227546;27;20411;-67
2023/01/30 01:34:57;;;;;;;0.20;0.10;;;4.60;99.90;;;;;;21230469;27;20565;-67
2023/01/30 01:45:12;;;;;;;0.20;0.10;;;4.50;99.90;;;;;;21211004;27;20385;-67
2023/01/30 01:55:18;;;;;;;0.20;0.10;;;5.30;99.90;;;;;;21229900;28;20417;-67
2023/01/30 02:05:24;;;;;;;0.20;0.10;;;5.40;99.90;;;;;;21241018;27;20397;-67
2023/01/30 02:15:29;;;;;;;0.20;0.10;;;4.90;99.90;;;;;;21247293;27;20457;-67
2023/01/30 02:26:20;;;;;;;0.20;0.10;;;4.80;99.90;;;;;;21246035;27;20385;-67
2023/01/30 02:36:33;;;;;;;0.20;0.10;;;4.90;99.90;;;;;;21245382;27;20802;-68
2023/01/30 02:46:44;;;;;;;0.20;0.10;;;4.60;99.90;;;;;;21243430;27;20397;-67
2023/01/30 02:56:51;;;;;;;0.20;0.10;;;4.00;99.90;;;;;;21242772;27;20411;-67
2023/01/30 03:07:08;;;;;;;0.20;0.10;;;4.20;99.90;;;;;;21243341;27;20405;-67
2023/01/30 03:17:16;;;;;;;0.20;0.10;;;4.30;99.90;;;;;;21240163;27;20401;-67
2023/01/30 03:27:21;;;;;;;0.20;0.10;;;3.90;99.90;;;;;;21240286;27;20402;-68
2023/01/30 03:37:27;;;;;;;0.20;0.10;;;4.00;99.90;;;;;;21229909;27;21072;-67
2023/01/30 03:47:31;;;;;;;0.20;0.10;;;4.00;99.90;;;;;;21239905;27;20888;-67
2023/01/30 03:57:36;;;;;;;0.20;0.10;;;4.20;99.90;;;;;;21239021;27;20450;-67
2023/01/30 04:07:40;;;;;;;0.20;0.10;;;4.20;99.90;;;;;;21237422;27;20454;-67
2023/01/30 04:17:46;;;;;;;0.20;0.10;;;4.30;99.90;;;;;;21236537;27;20424;-67
2023/01/30 04:27:50;;;;;;;0.20;0.10;;;4.50;99.90;;;;;;21236631;27;20393;-67
2023/01/30 04:37:55;;;;;;;0.20;0.10;;;4.30;99.90;;;;;;21236508;27;20740;-67
2023/01/30 04:47:59;;;;;;;0.20;0.10;;;4.80;99.90;;;;;;21235277;27;21255;-67
2023/01/30 04:58:04;;;;;;;0.20;0.10;;;4.60;99.90;;;;;;21233694;27;20389;-67
2023/01/30 05:08:08;;;;;;;0.20;0.10;;;4.60;99.90;;;;;;21190466;27;20393;-67
2023/01/30 05:18:13;;;;;;;0.20;0.10;;;4.40;99.90;;;;;;21229347;27;20795;-67
2023/01/30 05:28:17;;;;;;;0.20;0.10;;;4.30;99.90;;;;;;21213378;27;20884;-69
2023/01/30 05:38:25;;;;;;;0.20;0.10;;;4.40;99.90;;;;;;21231085;27;21128;-68
2023/01/30 05:48:29;;;;;;;0.20;0.10;;;4.50;99.90;;;;;;21229393;27;20491;-66
2023/01/30 05:58:34;;;;;;;0.20;0.10;;;4.50;99.90;;;;;;21230139;27;20393;-67
2023/01/30 06:08:39;;;;;;;0.20;0.10;;;4.10;99.90;;;;;;21229209;28;20441;-68
2023/01/30 06:18:45;;;;;;;0.20;0.10;;;4.00;99.90;;;;;;21228562;27;20453;-68
2023/01/30 06:28:49;;;;;;;0.20;0.10;;;3.70;99.90;;;;;;21227122;28;20520;-67
2023/01/30 06:38:55;;;;;;;0.20;0.10;;;3.80;99.90;;;;;;21228447;27;20456;-66
2023/01/30 06:48:59;;;;;;;0.20;0.10;;;4.20;99.90;;;;;;21233028;27;20729;-68
2023/01/30 06:59:04;;;;;;;0.20;0.10;;;3.60;99.90;;;;;;21196702;27;20399;-69
2023/01/30 07:09:08;;;;;;;0.20;0.10;;;3.90;99.90;;;;;;21152210;28;20456;-67
2023/01/30 07:19:15;;;;;;;0.20;0.10;;;3.20;99.90;;;;;;21154573;28;20917;-68
2023/01/30 07:29:19;;;;;;;0.20;0.10;;;3.70;99.90;;;;;;21154611;28;20928;-68
2023/01/30 07:39:24;;;;;;;0.20;0.10;;;3.90;99.90;;;;;;21135095;28;20521;-68
2023/01/30 07:49:28;;;;;;;0.20;0.10;;;4.10;99.90;;;;;;21152822;28;20804;-66
2023/01/30 07:59:33;;;;;;;0.20;0.10;;;4.40;99.90;;;;;;21150584;28;20410;-69
2023/01/30 08:09:37;;;;;;;1.10;1.10;;;4.90;99.90;;;;;;21148391;28;20860;-67
2023/01/30 08:19:43;;;;;;;0.20;0.10;;;5.00;99.90;;;;;;21149607;28;20393;-68
2023/01/30 08:29:47;;;;;;;0.20;0.10;;;5.10;99.90;;;;;;21148147;28;20446;-68
2023/01/30 08:39:52;;;;;;;0.20;0.10;;;5.10;99.90;;;;;;21148408;28;20421;-66
2023/01/30 08:49:56;;;;;;;0.20;0.10;;;5.40;99.90;;;;;;21149631;28;20484;-69
2023/01/30 09:00:02;;;;;;;0.20;0.10;;;5.80;99.90;;;;;;21148044;28;20403;-68
2023/01/30 09:10:06;;;;;;;0.20;0.10;;;6.20;99.90;;;;;;21145099;28;20459;-68
2023/01/30 09:20:12;;;;;;;0.20;0.10;;;6.50;99.90;;;;;;21144292;28;20440;-68
2023/01/30 09:30:17;;;;;;;0.20;0.10;;;6.80;99.90;;;;;;21126069;28;20460;-68
2023/01/30 09:40:26;;;;;;;0.20;0.10;;;7.10;99.90;;;;;;21158337;27;20454;-69
2023/01/30 09:50:45;;;;;;;0.20;0.10;;;7.20;99.90;;;;;;21108688;28;20542;-67
2023/01/30 10:00:54;;;;;;;0.20;0.10;;;7.50;99.90;;;;;;21123359;28;20374;-69
2023/01/30 10:11:05;;;;;;;0.20;0.10;;;8.00;99.90;;;;;;21123304;28;20974;-68
2023/01/30 10:21:26;;;;;;;0.20;0.10;;;8.60;99.90;;;;;;21141499;28;20822;-70
2023/01/30 10:31:36;;;;;;;0.20;0.10;;;8.90;99.90;;;;;;21156774;28;20489;-69
2023/01/30 10:41:51;;;;;;;0.20;0.00;;;9.40;99.90;;;;;;21155226;28;20427;-70
2023/01/30 10:52:00;;;;;;;0.20;0.10;;;10.10;99.90;;;;;;21155290;28;20414;-68
2023/01/30 11:02:16;;;;;;;0.20;0.10;;;10.20;99.90;;;;;;21154222;28;20409;-68
2023/01/30 11:12:20;;;;;;;0.20;0.10;;;11.20;99.90;;;;;;21155621;28;20444;-69
2023/01/30 11:22:26;;;;;;;0.20;0.10;;;11.70;99.90;;;;;;21154231;28;20408;-69
2023/01/30 11:32:31;;;;;;;0.20;0.10;;;11.20;99.90;;;;;;21151267;28;20413;-68
2023/01/30 11:42:36;;;;;;;0.20;0.10;;;12.20;99.90;;;;;;21170869;27;20397;-70
2023/01/30 11:52:44;;;;;;;0.20;0.10;;;12.80;99.90;;;;;;21218704;27;20409;-70
2023/01/30 12:02:51;;;;;;;0.20;0.10;;;13.00;99.90;;;;;;21238160;27;20409;-70
2023/01/30 12:12:58;;;;;;;0.20;0.10;;;12.70;99.90;;;;;;21233912;27;20524;-70
2023/01/30 12:23:12;;;;;;;0.20;0.00;;;13.80;99.90;;;;;;21233992;27;20813;-69
2023/01/30 12:33:16;;;;;;;0.20;0.10;;;13.80;99.90;;;;;;21189707;27;20409;-69
2023/01/30 12:43:40;;;;;;;0.20;0.10;;;14.00;99.90;;;;;;21208261;27;20393;-69
2023/01/30 12:53:53;;;;;;;0.20;0.07;;;14.60;99.90;;;;;;21232119;27;20408;-68
2023/01/30 13:04:05;;;;;;;0.20;0.10;;;14.90;99.90;;;;;;21212247;27;20381;-70
2023/01/30 13:14:17;;;;;;;0.20;0.10;;;15.10;99.90;;;;;;21225026;27;20401;-69
2023/01/30 13:24:32;;;;;;;0.20;0.10;;;15.00;99.90;;;;;;21229691;27;20830;-67
2023/01/30 13:34:40;;;;;;;0.20;0.10;;;14.80;99.90;;;;;;21166996;27;20414;-69
2023/01/30 13:44:45;;;;;;;0.20;0.10;;;15.20;99.90;;;;;;21122124;28;20784;-68
2023/01/30 13:54:58;;;;;;;0.20;0.10;;;15.40;99.90;;;;;;21167095;27;20416;-66
2023/01/30 14:05:04;;;;;;;0.20;0.10;;;16.60;99.90;;;;;;21224298;27;20432;-67
2023/01/30 14:15:27;;;;;;;0.20;0.10;;;16.40;99.90;;;;;;21222867;27;20424;-68
2023/01/30 14:25:44;;;;;;;0.20;0.10;;;16.30;99.90;;;;;;21135836;28;20406;-68
2023/01/30 14:35:49;;;;;;;0.20;0.10;;;17.60;99.90;;;;;;21138194;28;20435;-65
2023/01/30 14:45:56;;;;;;;0.20;0.10;;;17.90;99.90;;;;;;21136916;28;20403;-68
2023/01/30 14:56:02;;;;;;;0.20;0.10;;;17.00;99.90;;;;;;21140273;28;20411;-66
2023/01/30 15:06:08;;;;;;;0.20;0.00;;;17.30;99.90;;;;;;21145654;27;20461;-67
2023/01/30 15:16:37;;;;;;;0.20;0.10;;;17.80;99.90;;;;;;21231821;27;20548;-69
2023/01/30 15:26:54;;;;;;;0.20;0.10;;;14.40;99.90;;;;;;21306400;27;20392;-68
2023/01/30 15:36:58;;;;;;;0.20;0.10;;;14.20;99.90;;;;;;21144952;27;20451;-67
2023/01/30 15:47:32;;;;;;;0.20;0.10;;;13.60;99.90;;;;;;21178595;27;20403;-69
2023/01/30 15:57:39;;;;;;;0.20;0.10;;;13.70;99.90;;;;;;21216445;27;20783;-69
2023/01/30 16:07:46;;;;;;;0.20;0.10;;;13.70;99.90;;;;;;21258100;27;20399;-69
2023/01/30 16:17:58;;;;;;;0.20;0.10;;;14.00;99.90;;;;;;21218959;27;20753;-69
2023/01/30 16:28:04;;;;;;;0.20;0.10;;;14.00;99.90;;;;;;21209195;27;20482;-69
2023/01/30 16:38:31;;;;;;;0.20;0.10;;;13.20;99.90;;;;;;21128776;28;20422;-69
2023/01/30 16:48:36;;;;;;;0.20;0.10;;;12.00;99.90;;;;;;21128955;28;20401;-69
2023/01/30 16:58:44;;;;;;;0.20;0.10;;;11.50;99.90;;;;;;21145933;28;20766;-72
2023/01/30 17:08:52;;;;;;;0.20;0.10;;;11.10;99.90;;;;;;21109415;28;20813;-68
2023/01/30 17:18:58;;;;;;;0.20;0.00;;;10.80;99.90;;;;;;21144328;28;20406;-69
2023/01/30 17:29:03;;;;;;;0.20;0.10;;;10.50;99.90;;;;;;21125026;28;20897;-70
2023/01/30 17:39:13;;;;;;;0.20;0.10;;;10.20;99.90;;;;;;21124751;28;20409;-69
2023/01/30 17:49:21;;;;;;;0.20;0.10;;;10.00;99.90;;;;;;21125033;28;20482;-67
2023/01/30 17:59:24;;;;;;;0.20;0.10;;;9.60;99.90;;;;;;21124016;28;20473;-69
2023/01/30 18:09:30;;;;;;;0.20;0.10;;;9.60;99.90;;;;;;21141526;28;20410;-66
2023/01/30 18:19:34;;;;;;;0.20;0.10;;;9.20;99.90;;;;;;21141164;28;20418;-68
2023/01/30 18:29:39;;;;;;;0.20;0.10;;;9.10;99.90;;;;;;21141448;28;20398;-75
2023/01/30 18:39:43;;;;;;;0.20;0.10;;;8.80;99.90;;;;;;21212847;28;20473;-69
2023/01/30 18:49:48;;;;;;;0.20;0.10;;;8.60;99.90;;;;;;21222575;27;20752;-70
2023/01/30 18:59:52;;;;;;;0.20;0.00;;;8.60;99.90;;;;;;21239847;27;20409;-68
2023/01/30 19:09:58;;;;;;;0.20;0.10;;;8.40;99.90;;;;;;21218524;27;20863;-68
2023/01/30 19:20:07;;;;;;;0.20;0.10;;;8.30;99.90;;;;;;21217475;27;20476;-68
2023/01/30 19:30:13;;;;;;;0.20;0.10;;;8.30;99.90;;;;;;21234547;27;20466;-69
2023/01/30 19:40:18;;;;;;;0.20;0.10;;;8.30;99.90;;;;;;21196884;27;20910;-74
2023/01/30 19:50:23;;;;;;;0.20;0.10;;;8.20;99.90;;;;;;21234157;27;20428;-68
2023/01/30 20:00:27;;;;;;;0.20;0.10;;;8.10;99.90;;;;;;21213004;27;20404;-69
2023/01/30 20:10:33;;;;;;;0.20;0.10;;;8.00;99.90;;;;;;21213350;27;21269;-69
2023/01/30 20:20:38;;;;;;;0.20;0.10;;;7.90;99.90;;;;;;21232257;27;20432;-69
2023/01/30 20:30:43;;;;;;;0.20;0.10;;;7.70;99.90;;;;;;21212148;27;20713;-71
2023/01/30 20:40:47;;;;;;;0.20;0.10;;;7.50;99.90;;;;;;21210607;27;20983;-69
2023/01/30 20:50:52;;;;;;;0.20;0.10;;;7.40;99.90;;;;;;21223208;27;20405;-67
2023/01/30 21:00:57;;;;;;;0.20;0.10;;;7.50;99.90;;;;;;21211465;27;20446;-69
2023/01/30 21:11:08;;;;;;;0.20;0.10;;;7.40;99.90;;;;;;21285931;27;20455;-67
2023/01/30 21:21:17;;;;;;;0.20;0.10;;;7.20;99.90;;;;;;21298941;27;20563;-66
2023/01/30 21:31:24;;;;;;;0.20;0.10;;;7.30;99.90;;;;;;21290973;27;20504;-69
2023/01/30 21:51:54;;;;;;;0.20;0.10;;;7.10;99.90;;;;;;21109811;28;20444;-68
2023/01/30 22:01:58;;;;;;;0.20;0.10;;;7.30;99.90;;;;;;21125855;28;20965;-68
2023/01/30 22:12:04;;;;;;;0.20;0.10;;;7.10;99.90;;;;;;21124431;28;20485;-68
2023/01/30 22:22:08;;;;;;;0.20;0.10;;;7.00;99.90;;;;;;21154438;28;20566;-68
2023/01/30 22:32:13;;;;;;;0.20;0.10;;;7.20;99.90;;;;;;21165503;27;20411;-67
2023/01/30 22:42:17;;;;;;;0.20;0.10;;;7.20;99.90;;;;;;21244818;27;20470;-67
2023/01/30 22:52:23;;;;;;;0.20;0.10;;;7.40;99.90;;;;;;21226137;27;20415;-68
2023/01/30 23:02:27;;;;;;;0.20;0.10;;;7.10;99.90;;;;;;21243934;27;20524;-67
2023/01/30 23:22:54;;;;;;;0.20;0.10;;;6.80;99.90;;;;;;21222798;27;23072;-68
2023/01/30 23:32:59;;;;;;;0.20;0.10;;;6.40;99.90;;;;;;21204617;27;20403;-68
2023/01/30 23:43:03;;;;;;;0.20;0.10;;;6.20;99.90;;;;;;21286332;27;20399;-68
2023/01/30 23:53:10;;;;;;;0.20;0.10;;;6.00;99.90;;;;;;21307169;27;20404;-68
